createdAt,value
2019-05-18T00:01:29.584Z,10.18
2019-05-18T00:03:57.341Z,9.83
2019-05-18T00:06:25.054Z,9.92
2019-05-18T00:08:52.703Z,9.92
2019-05-18T00:11:20.349Z,10.11
2019-05-18T00:13:48.033Z,10.11
2019-05-18T00:16:15.712Z,9.94
2019-05-18T00:18:43.433Z,9.82
2019-05-18T00:21:11.156Z,9.64
2019-05-18T00:23:38.833Z,9.86
2019-05-18T00:26:06.475Z,9.88
2019-05-18T00:28:34.140Z,10.15
2019-05-18T00:31:01.918Z,9.33
2019-05-18T00:33:29.758Z,9.54
2019-05-18T00:35:57.408Z,9.50
2019-05-18T00:38:25.054Z,9.53
2019-05-18T00:40:52.712Z,9.55
2019-05-18T00:43:20.359Z,9.68
2019-05-18T00:45:48.013Z,9.38
2019-05-18T00:48:15.660Z,9.55
2019-05-18T00:50:43.344Z,9.53
2019-05-18T00:53:10.997Z,9.39
2019-05-18T00:55:38.653Z,9.36
2019-05-18T00:58:06.299Z,9.11
2019-05-18T01:00:33.947Z,9.16
2019-05-18T01:03:01.614Z,9.47
2019-05-18T01:05:29.458Z,9.10
2019-05-18T01:07:57.181Z,9.07
2019-05-18T01:10:24.841Z,9.17
2019-05-18T01:12:52.488Z,9.35
2019-05-18T01:15:20.153Z,9.28
2019-05-18T01:17:56.931Z,9.60
2019-05-18T01:20:17.166Z,9.61
2019-05-18T01:22:44.826Z,9.82
2019-05-18T01:25:12.491Z,9.70
2019-05-18T01:27:40.148Z,9.68
2019-05-18T01:30:07.878Z,9.47
2019-05-18T01:32:35.560Z,9.23
2019-05-18T01:35:03.249Z,9.38
2019-05-18T01:37:30.906Z,9.18
2019-05-18T01:39:58.552Z,9.00
2019-05-18T01:42:26.200Z,9.24
2019-05-18T01:44:53.853Z,9.28
2019-05-18T01:47:21.520Z,9.43
2019-05-18T01:49:49.221Z,9.45
2019-05-18T01:52:16.968Z,9.49
2019-05-18T01:54:44.622Z,9.67
2019-05-18T01:57:12.267Z,9.50
2019-05-18T01:59:39.932Z,9.49
2019-05-18T02:02:07.591Z,9.44
2019-05-18T02:04:35.279Z,9.38
2019-05-18T02:07:03.015Z,9.33
2019-05-18T02:09:30.726Z,9.32
2019-05-18T02:11:58.375Z,9.30
2019-05-18T02:14:26.089Z,9.31
2019-05-18T02:16:53.975Z,9.31
2019-05-18T02:19:24.446Z,9.31
2019-05-18T02:21:50.990Z,9.16
2019-05-18T02:24:18.633Z,9.16
2019-05-18T02:26:46.332Z,9.08
2019-05-18T02:29:14.020Z,8.75
2019-05-18T02:31:41.693Z,8.50
2019-05-18T02:34:09.361Z,8.52
2019-05-18T02:36:37.071Z,8.67
2019-05-18T02:39:06.268Z,8.66
2019-05-18T02:41:33.981Z,8.47
2019-05-18T02:44:01.627Z,8.38
2019-05-18T02:46:29.302Z,8.21
2019-05-18T02:48:56.944Z,8.26
2019-05-18T02:51:24.603Z,8.20
2019-05-18T02:53:52.255Z,8.32
2019-05-18T02:56:19.918Z,8.42
2019-05-18T02:58:47.576Z,8.50
2019-05-18T03:01:15.230Z,8.29
2019-05-18T03:03:42.879Z,8.29
2019-05-18T03:06:10.644Z,8.40
2019-05-18T03:08:38.318Z,8.45
2019-05-18T03:11:05.971Z,8.30
2019-05-18T03:13:33.621Z,8.29
2019-05-18T03:16:01.284Z,8.34
2019-05-18T03:18:28.958Z,8.32
2019-05-18T03:20:56.693Z,8.16
2019-05-18T03:23:24.345Z,8.19
2019-05-18T03:25:52.002Z,8.03
2019-05-18T03:28:19.731Z,7.79
2019-05-18T03:30:47.546Z,8.07
2019-05-18T03:33:15.242Z,8.14
2019-05-18T03:35:42.896Z,8.26
2019-05-18T03:38:10.541Z,8.25
2019-05-18T03:40:38.226Z,8.28
2019-05-18T03:43:05.875Z,8.59
2019-05-18T03:45:33.551Z,8.63
2019-05-18T03:48:01.207Z,8.73
2019-05-18T03:50:28.875Z,9.14
2019-05-18T03:52:56.992Z,9.21
2019-05-18T03:55:24.644Z,9.16
2019-05-18T03:57:52.289Z,9.28
2019-05-18T04:00:19.930Z,9.35
2019-05-18T04:02:47.601Z,9.39
2019-05-18T04:05:15.247Z,9.49
2019-05-18T04:07:42.971Z,9.57
2019-05-18T04:10:10.764Z,9.54
2019-05-18T04:12:38.410Z,9.71
2019-05-18T04:15:06.054Z,9.73
2019-05-18T04:17:33.713Z,9.70
2019-05-18T04:20:01.393Z,9.74
2019-05-18T04:22:29.063Z,10.02
2019-05-18T04:24:56.732Z,10.51
2019-05-18T04:27:24.409Z,10.82
2019-05-18T04:29:52.056Z,11.77
2019-05-18T04:32:19.732Z,12.64
2019-05-18T04:34:47.395Z,13.49
2019-05-18T04:37:15.052Z,14.00
2019-05-18T04:39:42.703Z,14.48
2019-05-18T04:42:10.365Z,14.62
2019-05-18T04:44:38.037Z,14.43
2019-05-18T04:47:05.712Z,14.59
2019-05-18T04:49:33.380Z,14.50
2019-05-18T04:52:01.028Z,14.79
2019-05-18T04:54:28.674Z,14.58
2019-05-18T04:56:56.356Z,14.49
2019-05-18T04:59:23.996Z,14.48
2019-05-18T05:01:51.675Z,14.69
2019-05-18T05:04:19.318Z,14.54
2019-05-18T05:06:46.973Z,14.13
2019-05-18T05:09:14.619Z,13.79
2019-05-18T05:11:42.279Z,13.86
2019-05-18T05:14:09.925Z,13.84
2019-05-18T05:16:37.583Z,13.84
2019-05-18T05:19:08.530Z,14.00
2019-05-18T05:21:34.662Z,13.97
2019-05-18T05:24:02.323Z,13.62
2019-05-18T05:26:29.987Z,13.60
2019-05-18T05:28:57.633Z,13.77
2019-05-18T05:31:25.294Z,14.13
2019-05-18T05:33:53.008Z,14.35
2019-05-18T05:36:20.684Z,14.73
2019-05-18T05:38:48.328Z,15.34
2019-05-18T05:41:16.851Z,15.40
2019-05-18T05:43:44.734Z,14.93
2019-05-18T05:46:12.396Z,14.87
2019-05-18T05:48:40.120Z,14.88
2019-05-18T05:51:07.775Z,15.06
2019-05-18T05:53:35.444Z,14.90
2019-05-18T05:56:03.147Z,14.90
2019-05-18T05:58:30.834Z,15.10
2019-05-18T06:00:58.493Z,15.78
2019-05-18T06:03:26.155Z,15.76
2019-05-18T06:05:53.833Z,16.33
2019-05-18T06:08:21.538Z,16.89
2019-05-18T06:10:49.201Z,17.14
2019-05-18T06:13:16.914Z,17.24
2019-05-18T06:15:44.591Z,17.42
2019-05-18T06:18:12.229Z,17.35
2019-05-18T06:20:50.855Z,16.95
2019-05-18T06:23:09.232Z,16.37
2019-05-18T06:25:36.888Z,15.81
2019-05-18T06:28:04.537Z,15.15
2019-05-18T06:30:32.231Z,15.43
2019-05-18T06:32:59.976Z,16.23
2019-05-18T06:35:27.689Z,16.26
2019-05-18T06:37:55.452Z,16.28
2019-05-18T06:40:23.144Z,16.66
2019-05-18T06:42:50.780Z,16.72
2019-05-18T06:45:18.430Z,16.78
2019-05-18T06:47:48.411Z,16.96
2019-05-18T06:50:15.486Z,16.48
2019-05-18T06:52:43.172Z,16.57
2019-05-18T06:55:10.827Z,16.66
2019-05-18T06:57:38.477Z,16.43
2019-05-18T07:00:06.132Z,16.87
2019-05-18T07:02:33.815Z,16.34
2019-05-18T07:05:01.499Z,16.98
2019-05-18T07:07:29.236Z,17.58
2019-05-18T07:09:56.894Z,17.34
2019-05-18T07:12:24.539Z,16.93
2019-05-18T07:14:52.192Z,17.37
2019-05-18T07:17:19.836Z,16.46
2019-05-18T07:19:47.497Z,16.47
2019-05-18T07:22:15.187Z,16.95
2019-05-18T07:24:42.884Z,17.08
2019-05-18T07:27:10.540Z,17.20
2019-05-18T07:29:38.194Z,17.22
2019-05-18T07:32:05.827Z,17.12
2019-05-18T07:34:33.493Z,17.19
2019-05-18T07:37:01.208Z,17.28
2019-05-18T07:39:29.060Z,17.34
2019-05-18T07:41:56.712Z,17.39
2019-05-18T07:44:24.367Z,17.63
2019-05-18T07:46:52.019Z,17.34
2019-05-18T07:49:19.683Z,17.03
2019-05-18T07:51:47.320Z,17.00
2019-05-18T07:54:14.977Z,17.14
2019-05-18T07:56:42.627Z,17.11
2019-05-18T07:59:10.289Z,17.45
2019-05-18T08:01:37.953Z,17.32
2019-05-18T08:04:05.598Z,17.19
2019-05-18T08:06:33.279Z,17.44
2019-05-18T08:09:01.024Z,17.64
2019-05-18T08:11:28.846Z,17.80
2019-05-18T08:13:56.488Z,17.42
2019-05-18T08:16:24.144Z,17.54
2019-05-18T08:18:51.814Z,17.57
2019-05-18T08:21:19.465Z,18.10
2019-05-18T08:23:47.108Z,18.17
2019-05-18T08:26:14.861Z,18.29
2019-05-18T08:28:42.631Z,18.07
2019-05-18T08:31:10.284Z,17.63
2019-05-18T08:33:38.028Z,17.44
2019-05-18T08:36:05.687Z,17.40
2019-05-18T08:38:33.428Z,17.55
2019-05-18T08:41:01.121Z,17.93
2019-05-18T08:43:28.831Z,18.23
2019-05-18T08:45:56.629Z,17.94
2019-05-18T08:48:24.308Z,17.71
2019-05-18T08:50:51.976Z,17.81
2019-05-18T08:53:19.629Z,17.38
2019-05-18T08:55:47.395Z,17.68
2019-05-18T08:58:15.062Z,17.80
2019-05-18T09:00:42.712Z,17.67
2019-05-18T09:03:10.360Z,17.60
2019-05-18T09:05:38.020Z,18.08
2019-05-18T09:08:05.673Z,18.26
2019-05-18T09:10:33.323Z,18.36
2019-05-18T09:13:00.986Z,18.56
2019-05-18T09:15:28.633Z,18.71
2019-05-18T09:17:56.280Z,18.36
2019-05-18T09:20:23.925Z,18.69
2019-05-18T09:22:51.584Z,18.47
2019-05-18T09:25:19.276Z,18.53
2019-05-18T09:27:46.990Z,18.55
2019-05-18T09:30:14.667Z,18.51
2019-05-18T09:32:42.517Z,18.50
2019-05-18T09:35:10.168Z,18.37
2019-05-18T09:37:37.824Z,18.43
2019-05-18T09:40:05.477Z,18.55
2019-05-18T09:42:33.131Z,18.14
2019-05-18T09:45:00.903Z,18.59
2019-05-18T09:47:28.736Z,18.80
2019-05-18T09:49:56.574Z,18.47
2019-05-18T09:52:43.531Z,18.30
2019-05-18T09:54:53.577Z,18.40
2019-05-18T09:57:21.265Z,18.28
2019-05-18T09:59:49.164Z,18.18
2019-05-18T10:02:17.006Z,18.65
2019-05-18T10:04:44.685Z,18.75
2019-05-18T10:07:12.380Z,18.45
2019-05-18T10:09:40.068Z,18.34
2019-05-18T10:12:07.803Z,18.98
2019-05-18T10:14:35.500Z,18.65
2019-05-18T10:17:03.217Z,19.09
2019-05-18T10:19:31.000Z,19.17
2019-05-18T10:21:58.709Z,19.40
2019-05-18T10:24:26.349Z,19.35
2019-05-18T10:26:54.005Z,19.33
2019-05-18T10:29:21.678Z,18.98
2019-05-18T10:31:49.335Z,18.86
2019-05-18T10:34:16.976Z,19.23
2019-05-18T10:36:44.641Z,19.61
2019-05-18T10:39:25.417Z,19.21
2019-05-18T10:41:53.143Z,19.21
2019-05-18T10:44:20.780Z,19.06
2019-05-18T10:46:48.470Z,19.23
2019-05-18T10:49:16.116Z,19.09
2019-05-18T10:51:43.777Z,19.45
2019-05-18T10:54:11.460Z,19.62
2019-05-18T10:56:39.110Z,19.68
2019-05-18T10:59:06.755Z,19.59
2019-05-18T11:01:34.417Z,19.68
2019-05-18T11:04:02.079Z,19.60
2019-05-18T11:06:30.309Z,19.57
2019-05-18T11:08:58.168Z,19.52
2019-05-18T11:11:25.816Z,19.39
2019-05-18T11:13:53.517Z,19.29
2019-05-18T11:16:21.170Z,19.54
2019-05-18T11:18:48.837Z,19.50
2019-05-18T11:21:16.486Z,19.69
2019-05-18T11:23:47.866Z,19.84
2019-05-18T11:26:14.103Z,19.45
2019-05-18T11:28:41.784Z,19.39
2019-05-18T11:31:09.427Z,19.64
2019-05-18T11:33:37.142Z,19.92
2019-05-18T11:36:04.824Z,19.46
2019-05-18T11:38:32.485Z,19.65
2019-05-18T11:41:00.248Z,19.51
2019-05-18T11:43:27.957Z,19.65
2019-05-18T11:45:55.596Z,19.94
2019-05-18T11:48:23.340Z,20.05
2019-05-18T11:50:50.992Z,19.97
2019-05-18T11:53:18.659Z,19.83
2019-05-18T11:55:46.376Z,20.08
2019-05-18T11:58:14.396Z,19.99
2019-05-18T12:00:42.058Z,20.12
2019-05-18T12:03:09.800Z,20.01
2019-05-18T12:05:37.447Z,19.98
2019-05-18T12:08:05.147Z,20.16
2019-05-18T12:10:32.792Z,20.04
2019-05-18T12:13:00.457Z,20.16
2019-05-18T12:15:28.202Z,20.33
2019-05-18T12:17:55.948Z,20.33
2019-05-18T12:20:23.602Z,20.40
2019-05-18T12:22:51.325Z,20.23
2019-05-18T12:25:19.090Z,20.04
2019-05-18T12:27:46.889Z,20.27
2019-05-18T12:30:14.855Z,20.18
2019-05-18T12:32:42.535Z,20.44
2019-05-18T12:35:10.186Z,20.67
2019-05-18T12:37:37.827Z,20.78
2019-05-18T12:40:05.499Z,20.98
2019-05-18T12:42:33.230Z,20.87
2019-05-18T12:45:01.115Z,20.66
2019-05-18T12:47:28.860Z,20.72
2019-05-18T12:49:56.607Z,20.46
2019-05-18T12:52:24.284Z,20.35
2019-05-18T12:54:51.932Z,20.27
2019-05-18T12:57:19.579Z,20.50
2019-05-18T12:59:47.325Z,20.70
2019-05-18T13:02:15.341Z,21.03
2019-05-18T13:04:43.160Z,21.14
2019-05-18T13:07:10.819Z,21.40
2019-05-18T13:09:38.482Z,21.15
2019-05-18T13:12:06.129Z,21.14
2019-05-18T13:14:33.792Z,20.84
2019-05-18T13:17:01.461Z,20.77
2019-05-18T13:19:29.116Z,20.98
2019-05-18T13:21:56.781Z,21.10
2019-05-18T13:24:24.531Z,21.24
2019-05-18T13:26:52.332Z,21.13
2019-05-18T13:29:20.170Z,21.37
2019-05-18T13:31:47.811Z,21.34
2019-05-18T13:34:15.551Z,21.32
2019-05-18T13:36:43.208Z,20.97
2019-05-18T13:39:10.872Z,21.17
2019-05-18T13:41:38.566Z,21.24
2019-05-18T13:44:06.390Z,21.45
2019-05-18T13:46:34.043Z,21.38
2019-05-18T13:49:01.674Z,21.46
2019-05-18T13:51:29.493Z,21.46
2019-05-18T13:53:57.441Z,21.75
2019-05-18T13:56:25.110Z,21.68
2019-05-18T13:58:53.020Z,21.64
2019-05-18T14:01:20.718Z,21.48
2019-05-18T14:03:48.437Z,21.48
2019-05-18T14:06:16.451Z,21.40
2019-05-18T14:08:44.216Z,21.60
2019-05-18T14:11:12.093Z,21.91
2019-05-18T14:13:39.885Z,21.91
2019-05-18T14:16:07.632Z,21.82
2019-05-18T14:18:35.303Z,21.74
2019-05-18T14:21:02.951Z,21.63
2019-05-18T14:23:30.612Z,21.71
2019-05-18T14:25:58.268Z,21.90
2019-05-18T14:28:25.933Z,21.90
2019-05-18T14:30:53.589Z,22.01
2019-05-18T14:33:21.299Z,22.00
2019-05-18T14:35:49.190Z,21.80
2019-05-18T14:38:16.854Z,21.87
2019-05-18T14:40:44.530Z,21.94
2019-05-18T14:43:12.194Z,21.72
2019-05-18T14:45:39.922Z,21.76
2019-05-18T14:48:07.765Z,21.67
2019-05-18T14:50:35.516Z,21.84
2019-05-18T14:53:03.183Z,21.98
2019-05-18T14:55:33.605Z,21.95
2019-05-18T14:58:00.296Z,21.90
2019-05-18T15:00:27.991Z,21.85
2019-05-18T15:02:55.856Z,22.08
2019-05-18T15:05:23.515Z,22.12
2019-05-18T15:07:51.159Z,22.11
2019-05-18T15:10:18.833Z,22.07
2019-05-18T15:12:46.483Z,22.05
2019-05-18T15:15:14.363Z,22.20
2019-05-18T15:17:42.188Z,22.12
2019-05-18T15:20:10.167Z,22.15
2019-05-18T15:22:37.925Z,22.24
2019-05-18T15:25:05.601Z,22.02
2019-05-18T15:27:33.270Z,22.02
2019-05-18T15:30:00.921Z,22.16
2019-05-18T15:32:28.595Z,22.07
2019-05-18T15:34:56.263Z,22.12
2019-05-18T15:37:23.937Z,22.21
2019-05-18T15:39:51.645Z,22.02
2019-05-18T15:42:19.531Z,21.84
2019-05-18T15:44:47.311Z,21.86
2019-05-18T15:47:14.977Z,21.77
2019-05-18T15:49:42.637Z,21.62
2019-05-18T15:52:10.342Z,21.58
2019-05-18T15:54:38.050Z,21.65
2019-05-18T15:57:05.865Z,21.67
2019-05-18T15:59:33.684Z,21.64
2019-05-18T16:02:06.105Z,21.60
2019-05-18T16:04:30.825Z,21.64
2019-05-18T16:06:58.488Z,21.64
2019-05-18T16:09:26.195Z,21.68
2019-05-18T16:11:54.127Z,21.70
2019-05-18T16:14:21.820Z,21.64
2019-05-18T16:16:54.412Z,21.62
2019-05-18T16:19:18.933Z,21.54
2019-05-18T16:21:46.601Z,21.56
2019-05-18T16:24:14.264Z,21.57
2019-05-18T16:26:41.921Z,21.52
2019-05-18T16:29:09.663Z,21.45
2019-05-18T16:31:37.317Z,21.40
2019-05-18T16:34:04.994Z,21.50
2019-05-18T16:36:32.667Z,21.37
2019-05-18T16:39:00.324Z,21.37
2019-05-18T16:41:27.985Z,21.30
2019-05-18T16:43:55.833Z,21.39
2019-05-18T16:46:23.674Z,21.40
2019-05-18T16:48:51.341Z,21.26
2019-05-18T16:51:19.007Z,21.24
2019-05-18T16:53:50.068Z,21.17
2019-05-18T16:56:16.045Z,21.25
2019-05-18T16:58:43.724Z,21.29
2019-05-18T17:01:11.393Z,21.27
2019-05-18T17:03:39.154Z,21.22
2019-05-18T17:06:07.141Z,21.15
2019-05-18T17:08:34.868Z,21.16
2019-05-18T17:11:02.525Z,21.07
2019-05-18T17:13:30.176Z,21.13
2019-05-18T17:15:57.835Z,20.96
2019-05-18T17:18:25.553Z,20.94
2019-05-18T17:20:53.208Z,20.99
2019-05-18T17:23:20.929Z,21.04
2019-05-18T17:25:48.663Z,20.97
2019-05-18T17:28:16.332Z,20.89
2019-05-18T17:30:43.985Z,20.79
2019-05-18T17:33:11.673Z,20.87
2019-05-18T17:35:39.403Z,20.95
2019-05-18T17:38:07.270Z,20.82
2019-05-18T17:40:35.068Z,20.85
2019-05-18T17:43:02.795Z,20.71
2019-05-18T17:45:30.487Z,20.67
2019-05-18T17:47:58.208Z,20.61
2019-05-18T17:50:25.861Z,20.61
2019-05-18T17:52:53.574Z,20.70
2019-05-18T17:55:21.389Z,20.56
2019-05-18T17:57:49.053Z,20.49
2019-05-18T18:00:16.713Z,20.40
2019-05-18T18:02:44.349Z,20.47
2019-05-18T18:05:12.008Z,20.24
2019-05-18T18:07:39.655Z,20.14
2019-05-18T18:10:07.719Z,20.12
2019-05-18T18:12:35.592Z,20.17
2019-05-18T18:15:03.261Z,19.98
2019-05-18T18:17:31.087Z,20.04
2019-05-18T18:19:58.744Z,19.89
2019-05-18T18:22:26.417Z,19.93
2019-05-18T18:24:54.103Z,19.61
2019-05-18T18:27:25.124Z,19.72
2019-05-18T18:29:51.144Z,19.52
2019-05-18T18:32:18.814Z,19.23
2019-05-18T18:34:46.472Z,19.04
2019-05-18T18:37:14.133Z,18.84
2019-05-18T18:39:41.788Z,18.79
2019-05-18T18:42:09.479Z,18.72
2019-05-18T18:44:37.193Z,18.58
2019-05-18T18:47:04.866Z,18.55
2019-05-18T18:49:32.540Z,18.44
2019-05-18T18:52:00.429Z,18.27
2019-05-18T18:54:28.120Z,18.20
2019-05-18T18:56:56.102Z,18.10
2019-05-18T18:59:23.752Z,18.14
2019-05-18T19:01:51.411Z,17.88
2019-05-18T19:04:19.158Z,17.62
2019-05-18T19:06:46.814Z,17.68
2019-05-18T19:09:14.489Z,17.59
2019-05-18T19:11:42.144Z,17.46
2019-05-18T19:14:09.804Z,17.43
2019-05-18T19:16:37.452Z,17.30
2019-05-18T19:19:05.120Z,17.39
2019-05-18T19:21:32.784Z,17.18
2019-05-18T19:24:00.467Z,17.17
2019-05-18T19:26:28.327Z,17.15
2019-05-18T19:28:56.096Z,17.00
2019-05-18T19:31:23.749Z,16.99
2019-05-18T19:33:51.403Z,17.03
2019-05-18T19:36:19.261Z,17.04
2019-05-18T19:38:47.005Z,16.84
2019-05-18T19:41:14.844Z,16.79
2019-05-18T19:43:42.584Z,16.76
2019-05-18T19:46:10.282Z,16.56
2019-05-18T19:48:37.942Z,16.49
2019-05-18T19:51:05.595Z,16.44
2019-05-18T19:53:33.248Z,16.41
2019-05-18T19:56:00.935Z,16.39
2019-05-18T19:58:28.596Z,16.38
2019-05-18T20:00:56.248Z,16.22
2019-05-18T20:03:23.934Z,16.11
2019-05-18T20:05:51.597Z,16.12
2019-05-18T20:08:19.279Z,15.99
2019-05-18T20:10:46.938Z,16.07
2019-05-18T20:13:14.675Z,15.78
2019-05-18T20:15:42.422Z,15.71
2019-05-18T20:18:10.351Z,15.81
2019-05-18T20:20:37.998Z,15.56
2019-05-18T20:23:08.190Z,15.40
2019-05-18T20:25:35.005Z,15.34
2019-05-18T20:28:02.692Z,15.50
2019-05-18T20:30:30.487Z,15.51
2019-05-18T20:32:58.178Z,15.31
2019-05-18T20:35:26.022Z,15.28
2019-05-18T20:37:53.806Z,15.28
2019-05-18T20:40:21.557Z,15.23
2019-05-18T20:42:49.317Z,15.02
2019-05-18T20:45:17.107Z,15.06
2019-05-18T20:47:44.802Z,15.06
2019-05-18T20:50:12.536Z,15.13
2019-05-18T20:52:40.212Z,14.95
2019-05-18T20:55:07.885Z,14.93
2019-05-18T20:57:35.543Z,15.05
2019-05-18T21:00:03.249Z,14.75
2019-05-18T21:02:30.938Z,14.66
2019-05-18T21:04:58.592Z,14.63
2019-05-18T21:07:26.322Z,14.33
2019-05-18T21:09:54.151Z,14.30
2019-05-18T21:12:21.800Z,14.52
2019-05-18T21:14:49.465Z,14.51
2019-05-18T21:17:17.132Z,14.23
2019-05-18T21:19:44.785Z,14.08
2019-05-18T21:22:12.548Z,13.91
2019-05-18T21:24:40.303Z,14.25
2019-05-18T21:27:07.956Z,14.05
2019-05-18T21:29:35.620Z,14.10
2019-05-18T21:32:03.388Z,13.93
2019-05-18T21:34:31.041Z,14.07
2019-05-18T21:36:58.797Z,14.03
2019-05-18T21:39:26.556Z,13.97
2019-05-18T21:41:54.264Z,13.94
2019-05-18T21:44:21.932Z,13.74
2019-05-18T21:46:49.584Z,13.74
2019-05-18T21:49:17.249Z,13.83
2019-05-18T21:51:45.008Z,13.85
2019-05-18T21:54:12.741Z,13.84
2019-05-18T21:56:40.461Z,13.86
2019-05-18T21:59:11.871Z,13.71
2019-05-18T22:01:37.592Z,13.62
2019-05-18T22:04:05.345Z,13.57
2019-05-18T22:06:33.226Z,13.51
2019-05-18T22:09:01.122Z,13.56
2019-05-18T22:11:28.876Z,13.83
2019-05-18T22:13:56.733Z,13.84
2019-05-18T22:16:24.480Z,13.91
2019-05-18T22:18:52.156Z,13.73
2019-05-18T22:21:19.824Z,13.75
2019-05-18T22:23:47.472Z,13.50
2019-05-18T22:26:15.147Z,13.61
2019-05-18T22:28:42.880Z,13.59
2019-05-18T22:31:10.562Z,13.49
2019-05-18T22:33:38.192Z,13.43
2019-05-18T22:36:05.857Z,13.37
2019-05-18T22:38:33.522Z,13.54
2019-05-18T22:41:01.404Z,13.70
2019-05-18T22:43:29.271Z,13.78
2019-05-18T22:45:56.963Z,13.69
2019-05-18T22:48:38.921Z,13.55
2019-05-18T22:50:54.009Z,13.66
2019-05-18T22:53:21.739Z,13.64
2019-05-18T22:55:49.538Z,13.63
2019-05-18T22:58:17.321Z,13.51
2019-05-18T23:00:44.995Z,13.53
2019-05-18T23:03:12.658Z,13.42
2019-05-18T23:05:40.444Z,13.37
2019-05-18T23:08:08.164Z,13.40
2019-05-18T23:10:35.922Z,13.26
2019-05-18T23:13:03.662Z,13.19
2019-05-18T23:15:31.345Z,13.08
2019-05-18T23:17:59.004Z,13.10
2019-05-18T23:20:26.676Z,12.89
2019-05-18T23:22:54.327Z,12.95
2019-05-18T23:25:22.004Z,13.09
2019-05-18T23:27:49.668Z,13.13
2019-05-18T23:30:17.327Z,13.05
2019-05-18T23:32:44.985Z,13.08
2019-05-18T23:35:12.923Z,13.09
2019-05-18T23:37:40.983Z,12.99
2019-05-18T23:40:08.641Z,12.93
2019-05-18T23:42:36.567Z,12.79
2019-05-18T23:45:04.213Z,12.55
2019-05-18T23:47:31.868Z,12.82
2019-05-18T23:49:59.690Z,12.55
2019-05-18T23:52:27.477Z,12.38
2019-05-18T23:54:55.124Z,12.38
2019-05-18T23:57:22.787Z,12.50
2019-05-18T23:59:50.444Z,12.30
